Check out our new PWSWeather beta!
PWSweather.com
Personal Weather Stations
Station Observations
METEOC500
Santo Antonio, FunchalPT 2020

Santo AntonioFunchalPT 2020

Lat: 32.678227, Lon: -16.945054

Elevation: 1669.94751

Station Type: WH Series

High Low Average
Temperature 60.8°F16.0°C 54.5°F12.5°C 57.1°F13.9°C
Dew Point 57.7°F14.3°C 51.8°F11.0°C 55.6°F13.1°C
Winds 12.8 mph 20.6 kmh Calm Calm 3.0 mph SW4.8 kmh SW
Wind Gusts 22.6 mph36.4 kmh -- 9.0 mph14.5 kmh
Humidity 98% 88% 95%
Pressure 30.39 in1029.1 mb 30.16 in1021.3 mb -
Precipitation 1.30 in33.0 mm - -
Hour Temp Dew Point Humidity Winds Wind Gusts Pressure Precip Precip Rate Daily Precip Total
12:03 AM 56.1°F13.4°C 54.7°F12.6°C 95% 0.2 mph SSW0.3 kmh SSW 15.0 mph24.1 kmh 30.19 in1022.4 mb 0.00 in0.0 mm 0.00 in0.0 mm 0.00 in0.0 mm
12:18 AM 56.1°F13.4°C 55.0°F12.8°C 96% 2.5 mph SSW4.0 kmh SSW 7.6 mph12.2 kmh 30.19 in1022.4 mb 0.01 in0.3 mm 0.04 in1.0 mm 0.01 in0.3 mm
12:34 AM 56.3°F13.5°C 55.2°F12.9°C 96% 1.3 mph SW2.1 kmh SW 10.1 mph16.3 kmh 30.19 in1022.4 mb 0.02 in0.5 mm 0.04 in1.0 mm 0.02 in0.5 mm
12:49 AM 56.3°F13.5°C 55.4°F13.0°C 97% 0.9 mph SSW1.4 kmh SSW 7.6 mph12.2 kmh 30.19 in1022.4 mb 0.04 in1.0 mm 0.08 in2.0 mm 0.04 in1.0 mm
01:04 AM 56.3°F13.5°C 55.4°F13.0°C 97% 5.6 mph E9.0 kmh E 7.6 mph12.2 kmh 30.18 in1022.0 mb 0.05 in1.3 mm 0.01 in0.3 mm 0.05 in1.3 mm
01:19 AM 56.3°F13.5°C 55.2°F12.9°C 96% 6.0 mph SW9.7 kmh SW 12.5 mph20.1 kmh 30.19 in1022.4 mb 0.04 in1.0 mm 0.00 in0.0 mm 0.05 in1.3 mm
01:34 AM 56.3°F13.5°C 54.9°F12.7°C 95% 4.0 mph ESE6.4 kmh ESE 17.4 mph28.0 kmh 30.19 in1022.4 mb 0.04 in1.0 mm 0.00 in0.0 mm 0.06 in1.5 mm
01:49 AM 55.8°F13.2°C 54.1°F12.3°C 94% 3.8 mph SSW6.1 kmh SSW 12.5 mph20.1 kmh 30.16 in1021.3 mb 0.02 in0.5 mm 0.00 in0.0 mm 0.06 in1.5 mm
02:04 AM 55.9°F13.3°C 54.9°F12.7°C 96% 3.1 mph S5.0 kmh S 12.5 mph20.1 kmh 30.16 in1021.3 mb 0.01 in0.3 mm 0.00 in0.0 mm 0.06 in1.5 mm
02:19 AM 56.8°F13.8°C 55.9°F13.3°C 97% 8.7 mph SE14.0 kmh SE 17.4 mph28.0 kmh 30.19 in1022.4 mb 0.01 in0.3 mm 0.00 in0.0 mm 0.06 in1.5 mm
02:35 AM 56.8°F13.8°C 55.4°F13.0°C 95% 12.8 mph SW20.6 kmh SW 22.6 mph36.4 kmh 30.19 in1022.4 mb 0.00 in0.0 mm 0.00 in0.0 mm 0.06 in1.5 mm
02:50 AM 56.7°F13.7°C 55.0°F12.8°C 94% 8.1 mph S13.0 kmh S 22.6 mph36.4 kmh 30.19 in1022.4 mb 0.00 in0.0 mm 0.00 in0.0 mm 0.06 in1.5 mm
03:05 AM 56.8°F13.8°C 55.4°F13.0°C 95% 3.8 mph SSW6.1 kmh SSW 20.1 mph32.3 kmh 30.18 in1022.0 mb 0.00 in0.0 mm 0.00 in0.0 mm 0.06 in1.5 mm
03:20 AM 56.8°F13.8°C 55.4°F13.0°C 95% 6.9 mph SSW11.1 kmh SSW 15.0 mph24.1 kmh 30.19 in1022.4 mb 0.00 in0.0 mm 0.00 in0.0 mm 0.06 in1.5 mm
03:35 AM 56.8°F13.8°C 55.4°F13.0°C 95% 8.1 mph SSW13.0 kmh SSW 17.4 mph28.0 kmh 30.19 in1022.4 mb 0.00 in0.0 mm 0.00 in0.0 mm 0.06 in1.5 mm
03:50 AM 56.8°F13.8°C 55.8°F13.2°C 96% 11.0 mph SSW17.7 kmh SSW 15.0 mph24.1 kmh 30.19 in1022.4 mb 0.00 in0.0 mm 0.00 in0.0 mm 0.06 in1.5 mm
04:05 AM 57.0°F13.9°C 55.9°F13.3°C 96% 1.6 mph SSW2.6 kmh SSW 15.0 mph24.1 kmh 30.20 in1022.7 mb 0.00 in0.0 mm 0.00 in0.0 mm 0.06 in1.5 mm
04:20 AM 57.0°F13.9°C 55.9°F13.3°C 96% 7.8 mph SSW12.6 kmh SSW 10.1 mph16.3 kmh 30.19 in1022.4 mb 0.00 in0.0 mm 0.00 in0.0 mm 0.06 in1.5 mm
04:35 AM 57.2°F14.0°C 56.3°F13.5°C 97% 4.7 mph S7.6 kmh S 10.1 mph16.3 kmh 30.19 in1022.4 mb 0.00 in0.0 mm 0.00 in0.0 mm 0.06 in1.5 mm
04:51 AM 57.4°F14.1°C 56.5°F13.6°C 97% 6.3 mph S10.1 kmh S 17.4 mph28.0 kmh 30.18 in1022.0 mb 0.00 in0.0 mm 0.00 in0.0 mm 0.06 in1.5 mm
05:06 AM 57.4°F14.1°C 56.8°F13.8°C 98% 9.2 mph S14.8 kmh S 12.5 mph20.1 kmh 30.19 in1022.4 mb 0.00 in0.0 mm 0.00 in0.0 mm 0.06 in1.5 mm
05:21 AM 57.4°F14.1°C 56.8°F13.8°C 98% 5.4 mph SSW8.7 kmh SSW 17.4 mph28.0 kmh 30.18 in1022.0 mb 0.01 in0.3 mm 0.04 in1.0 mm 0.07 in1.8 mm
05:36 AM 57.6°F14.2°C 57.0°F13.9°C 98% 5.6 mph S9.0 kmh S 20.1 mph32.3 kmh 30.18 in1022.0 mb 0.01 in0.3 mm 0.00 in0.0 mm 0.07 in1.8 mm
05:51 AM 57.6°F14.2°C 57.0°F13.9°C 98% 10.1 mph ESE16.3 kmh ESE 15.0 mph24.1 kmh 30.20 in1022.7 mb 0.01 in0.3 mm 0.00 in0.0 mm 0.07 in1.8 mm
06:06 AM 57.4°F14.1°C 56.8°F13.8°C 98% 5.4 mph S8.7 kmh S 15.0 mph24.1 kmh 30.20 in1022.7 mb 0.01 in0.3 mm 0.00 in0.0 mm 0.07 in1.8 mm
06:21 AM 57.4°F14.1°C 56.8°F13.8°C 98% 4.0 mph SSW6.4 kmh SSW 17.4 mph28.0 kmh 30.20 in1022.7 mb 0.00 in0.0 mm 0.00 in0.0 mm 0.07 in1.8 mm
06:36 AM 57.4°F14.1°C 56.8°F13.8°C 98% 5.6 mph SSW9.0 kmh SSW 15.0 mph24.1 kmh 30.20 in1022.7 mb 0.00 in0.0 mm 0.00 in0.0 mm 0.07 in1.8 mm
06:51 AM 57.2°F14.0°C 56.7°F13.7°C 98% 3.4 mph SSW5.5 kmh SSW 10.1 mph16.3 kmh 30.21 in1023.0 mb 0.01 in0.3 mm 0.04 in1.0 mm 0.08 in2.0 mm
07:07 AM 57.0°F13.9°C 56.5°F13.6°C 98% 6.0 mph SE9.7 kmh SE 12.5 mph20.1 kmh 30.21 in1023.0 mb 0.01 in0.3 mm 0.00 in0.0 mm 0.08 in2.0 mm
07:22 AM 57.0°F13.9°C 56.5°F13.6°C 98% 9.2 mph S14.8 kmh S 12.5 mph20.1 kmh 30.22 in1023.4 mb 0.01 in0.3 mm 0.00 in0.0 mm 0.08 in2.0 mm
07:37 AM 57.0°F13.9°C 56.1°F13.4°C 97% 7.6 mph SW12.2 kmh SW 12.5 mph20.1 kmh 30.22 in1023.4 mb 0.01 in0.3 mm 0.00 in0.0 mm 0.08 in2.0 mm
07:52 AM 57.0°F13.9°C 56.1°F13.4°C 97% 9.2 mph S14.8 kmh S 15.0 mph24.1 kmh 30.23 in1023.7 mb 0.00 in0.0 mm 0.00 in0.0 mm 0.08 in2.0 mm
08:07 AM 57.7°F14.3°C 56.8°F13.8°C 97% 4.7 mph S7.6 kmh S 15.0 mph24.1 kmh 30.24 in1024.0 mb 0.00 in0.0 mm 0.00 in0.0 mm 0.08 in2.0 mm
08:22 AM 57.6°F14.2°C 56.7°F13.7°C 97% 7.2 mph S11.6 kmh S 17.4 mph28.0 kmh 30.24 in1024.0 mb 0.00 in0.0 mm 0.00 in0.0 mm 0.08 in2.0 mm
08:37 AM 57.7°F14.3°C 57.2°F14.0°C 98% 8.1 mph S13.0 kmh S 15.0 mph24.1 kmh 30.24 in1024.0 mb 0.00 in0.0 mm 0.00 in0.0 mm 0.08 in2.0 mm
08:52 AM 56.8°F13.8°C 56.3°F13.5°C 98% 2.9 mph NNW4.7 kmh NNW 17.4 mph28.0 kmh 30.25 in1024.4 mb 0.15 in3.8 mm 0.60 in15.2 mm 0.24 in6.1 mm
09:07 AM 55.0°F12.8°C 54.5°F12.5°C 98% Calm Calm 7.6 mph12.2 kmh 30.26 in1024.7 mb 0.21 in5.3 mm 0.08 in2.0 mm 0.30 in7.6 mm
09:22 AM 54.5°F12.5°C 54.0°F12.2°C 98% 0.2 mph WSW0.3 kmh WSW 7.6 mph12.2 kmh 30.27 in1025.1 mb 0.35 in8.9 mm 0.56 in14.2 mm 0.44 in11.2 mm
09:38 AM 55.0°F12.8°C 54.5°F12.5°C 98% Calm Calm 4.9 mph7.9 kmh 30.28 in1025.4 mb 0.43 in10.9 mm 0.30 in7.6 mm 0.51 in13.0 mm
09:53 AM 55.4°F13.0°C 54.9°F12.7°C 98% 1.3 mph ESE2.1 kmh ESE 4.9 mph7.9 kmh 30.29 in1025.7 mb 0.32 in8.1 mm 0.00 in0.0 mm 0.56 in14.2 mm
10:08 AM 55.4°F13.0°C 54.9°F12.7°C 98% Calm Calm 2.5 mph4.0 kmh 30.29 in1025.7 mb 0.32 in8.1 mm 0.00 in0.0 mm 0.61 in15.5 mm
10:23 AM 55.4°F13.0°C 54.9°F12.7°C 98% 2.5 mph NW4.0 kmh NW 4.9 mph7.9 kmh 30.29 in1025.7 mb 0.20 in5.1 mm 0.00 in0.0 mm 0.64 in16.3 mm
10:38 AM 55.6°F13.1°C 55.0°F12.8°C 98% 1.6 mph NNE2.6 kmh NNE 4.9 mph7.9 kmh 30.30 in1026.1 mb 0.14 in3.6 mm 0.00 in0.0 mm 0.65 in16.5 mm
10:53 AM 55.9°F13.3°C 55.4°F13.0°C 98% 1.6 mph SSE2.6 kmh SSE 4.9 mph7.9 kmh 30.30 in1026.1 mb 0.12 in3.0 mm 0.00 in0.0 mm 0.67 in17.0 mm
11:08 AM 56.1°F13.4°C 55.6°F13.1°C 98% 0.2 mph W0.3 kmh W 4.9 mph7.9 kmh 30.30 in1026.1 mb 0.13 in3.3 mm 0.01 in0.3 mm 0.74 in18.8 mm
11:23 AM 56.3°F13.5°C 55.8°F13.2°C 98% Calm Calm 4.9 mph7.9 kmh 30.30 in1026.1 mb 0.17 in4.3 mm 0.16 in4.1 mm 0.80 in20.3 mm
11:38 AM 56.3°F13.5°C 55.8°F13.2°C 98% 0.2 mph N0.3 kmh N 2.5 mph4.0 kmh 30.30 in1026.1 mb 0.18 in4.6 mm 0.04 in1.0 mm 0.84 in21.3 mm
11:54 AM 56.3°F13.5°C 55.4°F13.0°C 97% Calm Calm 7.6 mph12.2 kmh 30.30 in1026.1 mb 0.19 in4.8 mm 0.04 in1.0 mm 0.86 in21.8 mm
12:09 PM 56.5°F13.6°C 55.6°F13.1°C 97% 0.2 mph NNE0.3 kmh NNE 2.5 mph4.0 kmh 30.30 in1026.1 mb 0.12 in3.0 mm 0.00 in0.0 mm 0.86 in21.8 mm
12:24 PM 56.8°F13.8°C 55.9°F13.3°C 97% 0.9 mph NNE1.4 kmh NNE 2.5 mph4.0 kmh 30.30 in1026.1 mb 0.07 in1.8 mm 0.00 in0.0 mm 0.87 in22.1 mm
12:39 PM 57.0°F13.9°C 56.1°F13.4°C 97% 2.5 mph SSW4.0 kmh SSW 7.6 mph12.2 kmh 30.29 in1025.7 mb 0.04 in1.0 mm 0.00 in0.0 mm 0.87 in22.1 mm
12:54 PM 57.2°F14.0°C 56.1°F13.4°C 96% Calm Calm 4.9 mph7.9 kmh 30.29 in1025.7 mb 0.01 in0.3 mm 0.00 in0.0 mm 0.87 in22.1 mm
01:09 PM 57.4°F14.1°C 56.3°F13.5°C 96% Calm Calm 7.6 mph12.2 kmh 30.29 in1025.7 mb 0.01 in0.3 mm 0.00 in0.0 mm 0.87 in22.1 mm
01:24 PM 57.6°F14.2°C 56.5°F13.6°C 96% Calm Calm 4.9 mph7.9 kmh 30.28 in1025.4 mb 0.00 in0.0 mm 0.00 in0.0 mm 0.87 in22.1 mm
01:39 PM 57.6°F14.2°C 56.1°F13.4°C 95% Calm Calm 4.9 mph7.9 kmh 30.28 in1025.4 mb 0.01 in0.3 mm 0.04 in1.0 mm 0.89 in22.6 mm
01:54 PM 57.6°F14.2°C 56.1°F13.4°C 95% Calm Calm 2.5 mph4.0 kmh 30.27 in1025.1 mb 0.05 in1.3 mm 0.16 in4.1 mm 0.92 in23.4 mm
02:09 PM 57.0°F13.9°C 55.6°F13.1°C 95% Calm Calm 4.9 mph7.9 kmh 30.27 in1025.1 mb 0.30 in7.6 mm 0.33 in8.4 mm 1.18 in30.0 mm
02:25 PM 56.5°F13.6°C 55.4°F13.0°C 96% 4.9 mph NNW7.9 kmh NNW 10.1 mph16.3 kmh 30.27 in1025.1 mb 0.43 in10.9 mm 0.49 in12.4 mm 1.30 in33.0 mm
02:40 PM 56.5°F13.6°C 54.9°F12.7°C 94% 6.0 mph N9.7 kmh N 10.1 mph16.3 kmh 30.27 in1025.1 mb 0.41 in10.4 mm 0.00 in0.0 mm 1.30 in33.0 mm
02:55 PM 57.6°F14.2°C 55.2°F12.9°C 92% 2.2 mph NNE3.5 kmh NNE 10.1 mph16.3 kmh 30.27 in1025.1 mb 0.38 in9.7 mm 0.00 in0.0 mm 1.30 in33.0 mm
03:10 PM 58.6°F14.8°C 55.9°F13.3°C 91% Calm Calm 7.6 mph12.2 kmh 30.28 in1025.4 mb 0.11 in2.8 mm 0.00 in0.0 mm 1.30 in33.0 mm
03:25 PM 59.4°F15.2°C 56.7°F13.7°C 91% Calm Calm 2.5 mph4.0 kmh 30.28 in1025.4 mb 0.00 in0.0 mm 0.00 in0.0 mm 1.30 in33.0 mm
03:40 PM 59.9°F15.5°C 56.7°F13.7°C 89% 0.2 mph S0.3 kmh S 2.5 mph4.0 kmh 30.28 in1025.4 mb 0.00 in0.0 mm 0.00 in0.0 mm 1.30 in33.0 mm
03:55 PM 60.3°F15.7°C 57.6°F14.2°C 91% 1.8 mph S2.9 kmh S 4.9 mph7.9 kmh 30.29 in1025.7 mb 0.00 in0.0 mm 0.00 in0.0 mm 1.30 in33.0 mm
04:10 PM 59.9°F15.5°C 57.6°F14.2°C 92% Calm Calm 2.5 mph4.0 kmh 30.29 in1025.7 mb 0.00 in0.0 mm 0.00 in0.0 mm 1.30 in33.0 mm
04:25 PM 60.3°F15.7°C 56.7°F13.7°C 88% Calm Calm 2.5 mph4.0 kmh 30.29 in1025.7 mb 0.00 in0.0 mm 0.00 in0.0 mm 1.30 in33.0 mm
04:40 PM 60.8°F16.0°C 57.6°F14.2°C 89% Calm Calm 4.9 mph7.9 kmh 30.29 in1025.7 mb 0.00 in0.0 mm 0.00 in0.0 mm 1.30 in33.0 mm
04:56 PM 60.6°F15.9°C 57.7°F14.3°C 90% 1.6 mph SSW2.6 kmh SSW 4.9 mph7.9 kmh 30.30 in1026.1 mb 0.00 in0.0 mm 0.00 in0.0 mm 1.30 in33.0 mm
05:11 PM 60.3°F15.7°C 57.4°F14.1°C 90% Calm Calm 4.9 mph7.9 kmh 30.30 in1026.1 mb 0.00 in0.0 mm 0.00 in0.0 mm 1.30 in33.0 mm
05:26 PM 60.1°F15.6°C 57.2°F14.0°C 90% Calm Calm 2.5 mph4.0 kmh 30.30 in1026.1 mb 0.00 in0.0 mm 0.00 in0.0 mm 1.30 in33.0 mm
05:41 PM 59.9°F15.5°C 57.2°F14.0°C 91% Calm Calm 2.5 mph4.0 kmh 30.31 in1026.4 mb 0.00 in0.0 mm 0.00 in0.0 mm 1.30 in33.0 mm
05:56 PM 59.2°F15.1°C 57.2°F14.0°C 93% Calm Calm 2.5 mph4.0 kmh 30.31 in1026.4 mb 0.00 in0.0 mm 0.00 in0.0 mm 1.30 in33.0 mm
06:11 PM 58.5°F14.7°C 56.7°F13.7°C 94% Calm Calm 2.5 mph4.0 kmh 30.32 in1026.8 mb 0.00 in0.0 mm 0.00 in0.0 mm 1.30 in33.0 mm
06:26 PM 58.3°F14.6°C 56.5°F13.6°C 94% Calm Calm -- 30.33 in1027.1 mb 0.00 in0.0 mm 0.00 in0.0 mm 1.30 in33.0 mm
06:41 PM 57.9°F14.4°C 56.1°F13.4°C 94% Calm Calm -- 30.33 in1027.1 mb 0.00 in0.0 mm 0.00 in0.0 mm 1.30 in33.0 mm
06:56 PM 57.4°F14.1°C 55.4°F13.0°C 93% 3.1 mph NNW5.0 kmh NNW 4.9 mph7.9 kmh 30.33 in1027.1 mb 0.00 in0.0 mm 0.00 in0.0 mm 1.30 in33.0 mm
07:11 PM 56.8°F13.8°C 54.3°F12.4°C 91% 2.9 mph NNW4.7 kmh NNW 4.9 mph7.9 kmh 30.34 in1027.4 mb 0.00 in0.0 mm 0.00 in0.0 mm 1.30 in33.0 mm
07:27 PM 56.7°F13.7°C 54.3°F12.4°C 92% 2.9 mph NNW4.7 kmh NNW 4.9 mph7.9 kmh 30.35 in1027.8 mb 0.00 in0.0 mm 0.00 in0.0 mm 1.30 in33.0 mm
07:42 PM 56.7°F13.7°C 54.3°F12.4°C 92% 2.5 mph NNW4.0 kmh NNW 4.9 mph7.9 kmh 30.35 in1027.8 mb 0.00 in0.0 mm 0.00 in0.0 mm 1.30 in33.0 mm
07:57 PM 56.5°F13.6°C 54.9°F12.7°C 94% 1.6 mph NNW2.6 kmh NNW 4.9 mph7.9 kmh 30.35 in1027.8 mb 0.00 in0.0 mm 0.00 in0.0 mm 1.30 in33.0 mm
08:12 PM 56.5°F13.6°C 54.5°F12.5°C 93% 0.9 mph NNW1.4 kmh NNW 7.6 mph12.2 kmh 30.36 in1028.1 mb 0.00 in0.0 mm 0.00 in0.0 mm 1.30 in33.0 mm
08:27 PM 56.8°F13.8°C 54.9°F12.7°C 93% 1.3 mph NW2.1 kmh NW 4.9 mph7.9 kmh 30.36 in1028.1 mb 0.00 in0.0 mm 0.00 in0.0 mm 1.30 in33.0 mm
08:42 PM 57.2°F14.0°C 55.2°F12.9°C 93% 0.2 mph NW0.3 kmh NW 7.6 mph12.2 kmh 30.37 in1028.4 mb 0.00 in0.0 mm 0.00 in0.0 mm 1.30 in33.0 mm
08:57 PM 57.4°F14.1°C 55.4°F13.0°C 93% 3.1 mph NW5.0 kmh NW 4.9 mph7.9 kmh 30.37 in1028.4 mb 0.00 in0.0 mm 0.00 in0.0 mm 1.30 in33.0 mm
09:12 PM 57.4°F14.1°C 55.4°F13.0°C 93% 0.7 mph NW1.1 kmh NW 4.9 mph7.9 kmh 30.37 in1028.4 mb 0.00 in0.0 mm 0.00 in0.0 mm 1.30 in33.0 mm
09:27 PM 56.7°F13.7°C 54.7°F12.6°C 93% 1.8 mph NNW2.9 kmh NNW 7.6 mph12.2 kmh 30.37 in1028.4 mb 0.00 in0.0 mm 0.00 in0.0 mm 1.30 in33.0 mm
09:43 PM 56.5°F13.6°C 54.1°F12.3°C 92% 2.9 mph NNW4.7 kmh NNW 4.9 mph7.9 kmh 30.38 in1028.8 mb 0.00 in0.0 mm 0.00 in0.0 mm 1.30 in33.0 mm
09:58 PM 56.7°F13.7°C 54.3°F12.4°C 92% 1.3 mph N2.1 kmh N 4.9 mph7.9 kmh 30.38 in1028.8 mb 0.00 in0.0 mm 0.00 in0.0 mm 1.30 in33.0 mm
10:13 PM 56.7°F13.7°C 54.3°F12.4°C 92% 5.4 mph NNW8.7 kmh NNW 7.6 mph12.2 kmh 30.39 in1029.1 mb 0.00 in0.0 mm 0.00 in0.0 mm 1.30 in33.0 mm
10:28 PM 56.8°F13.8°C 54.3°F12.4°C 91% 3.1 mph NNW5.0 kmh NNW 7.6 mph12.2 kmh 30.38 in1028.8 mb 0.00 in0.0 mm 0.00 in0.0 mm 1.30 in33.0 mm
10:43 PM 56.8°F13.8°C 53.6°F12.0°C 89% 4.7 mph NNW7.6 kmh NNW 7.6 mph12.2 kmh 30.38 in1028.8 mb 0.00 in0.0 mm 0.00 in0.0 mm 1.30 in33.0 mm
10:58 PM 56.5°F13.6°C 54.0°F12.2°C 91% 2.9 mph N4.7 kmh N 10.1 mph16.3 kmh 30.39 in1029.1 mb 0.00 in0.0 mm 0.00 in0.0 mm 1.30 in33.0 mm
11:13 PM 56.1°F13.4°C 53.8°F12.1°C 92% 3.4 mph NW5.5 kmh NW 7.6 mph12.2 kmh 30.39 in1029.1 mb 0.00 in0.0 mm 0.00 in0.0 mm 1.30 in33.0 mm
11:28 PM 55.9°F13.3°C 53.1°F11.7°C 90% 3.1 mph NNW5.0 kmh NNW 7.6 mph12.2 kmh 30.39 in1029.1 mb 0.00 in0.0 mm 0.00 in0.0 mm 1.30 in33.0 mm
11:43 PM 55.8°F13.2°C 52.5°F11.4°C 89% 3.1 mph NNW5.0 kmh NNW 7.6 mph12.2 kmh 30.38 in1028.8 mb 0.00 in0.0 mm 0.00 in0.0 mm 1.30 in33.0 mm
11:58 PM 55.0°F12.8°C 51.8°F11.0°C 89% 5.4 mph N8.7 kmh N 7.6 mph12.2 kmh 30.39 in1029.1 mb 0.00 in0.0 mm 0.00 in0.0 mm 1.30 in33.0 mm